Time;durP1;ratioP1;P1;durP2;ratioP2;P2;SDS_P1;SDS_P2;PMS_P1;PMS_P2;Temp;Humidity;BMP_temperature;BMP_pressure;BME280_temperature;BME280_humidity;BME280_pressure;Samples;Min_cycle;Max_cycle;Signal;HPM_P1;HPM_P2
2022/07/03 00:01:38;;;;;;;;;;;13.40;99.90;;;;;;4990038;28;19914;-66
2022/07/03 00:04:03;;;;;;;;;;;13.40;99.90;;;;;;5010764;28;20334;-65
2022/07/03 00:06:31;;;;;;;;;;;13.40;99.90;;;;;;4987830;28;20050;-66
2022/07/03 00:08:57;;;;;;;;;;;13.50;99.90;;;;;;5005012;28;19941;-67
2022/07/03 00:11:23;;;;;;;;;;;13.60;99.90;;;;;;5007169;28;20276;-66
2022/07/03 00:13:49;;;;;;;;;;;13.60;99.90;;;;;;5008863;28;19922;-66
2022/07/03 00:16:14;;;;;;;;;;;13.70;99.90;;;;;;5012923;28;19914;-67
2022/07/03 00:18:40;;;;;;;;;;;13.80;99.90;;;;;;5009176;28;19921;-67
2022/07/03 00:21:07;;;;;;;;;;;13.90;99.90;;;;;;5013214;28;19917;-66
2022/07/03 00:23:56;;;;;;;;;;;13.90;99.90;;;;;;4992935;28;20383;-66
2022/07/03 00:26:23;;;;;;;;;;;14.00;99.90;;;;;;4982278;28;19944;-66
2022/07/03 00:28:49;;;;;;;;;;;14.10;99.90;;;;;;4990479;28;20019;-67
2022/07/03 00:31:15;;;;;;;;;;;14.10;99.90;;;;;;5009528;28;20387;-66
2022/07/03 00:33:41;;;;;;;;;;;14.00;99.90;;;;;;5004542;28;20634;-66
2022/07/03 00:36:06;;;;;;;;;;;14.10;99.90;;;;;;5008035;28;19914;-66
2022/07/03 00:38:32;;;;;;;;;;;14.00;99.90;;;;;;5008889;28;20400;-66
2022/07/03 00:41:00;;;;;;;;;;;14.10;99.90;;;;;;5008275;28;19914;-66
2022/07/03 00:43:26;;;;;;;;;;;14.20;99.90;;;;;;5009111;28;19953;-65
2022/07/03 00:45:52;;;;;;;;;;;14.20;99.90;;;;;;5002036;28;19994;-66
2022/07/03 00:48:19;;;;;;;;;;;14.20;99.90;;;;;;5012488;28;19921;-66
2022/07/03 00:50:49;;;;;;;;;;;14.10;99.90;;;;;;5008969;28;19917;-66
2022/07/03 00:53:18;;;;;;;;;;;14.10;99.90;;;;;;5009393;28;19921;-66
2022/07/03 00:55:46;;;;;;;;;;;14.00;99.90;;;;;;5001792;28;19913;-66
2022/07/03 00:58:14;;;;;;;;;;;14.00;99.90;;;;;;5009404;28;19913;-66
2022/07/03 01:00:40;;;;;;;;;;;14.10;99.90;;;;;;5007452;28;19920;-65
2022/07/03 01:03:07;;;;;;;;;;;14.10;99.90;;;;;;5004981;28;19914;-66
2022/07/03 01:05:32;;;;;;;;;;;14.10;99.90;;;;;;5010854;28;19913;-66
2022/07/03 01:07:58;;;;;;;;;;;14.30;99.90;;;;;;4991778;28;20381;-66
2022/07/03 01:10:36;;;;;;;;;;;14.30;99.90;;;;;;5010767;28;20041;-67
2022/07/03 01:13:17;;;;;;;;;;;14.20;99.90;;;;;;4990118;28;19925;-66
2022/07/03 01:16:02;;;;;;;;;;;14.20;99.90;;;;;;4973485;28;20271;-65
2022/07/03 01:18:32;;;;;;;;;;;14.20;99.90;;;;;;5003829;28;20346;-66
2022/07/03 01:21:06;;;;;;;;;;;14.20;99.90;;;;;;5006907;28;19914;-66
2022/07/03 01:23:51;;;;;;;;;;;14.00;99.90;;;;;;5007032;28;19971;-66
2022/07/03 01:26:18;;;;;;;;;;;13.80;99.90;;;;;;4989561;28;21005;-65
2022/07/03 01:28:45;;;;;;;;;;;13.80;99.90;;;;;;5012498;28;19917;-66
2022/07/03 01:34:16;;;;;;;;;;;13.80;99.90;;;;;;5008049;28;19920;-66
2022/07/03 01:36:43;;;;;;;;;;;13.70;99.90;;;;;;5002984;28;19968;-66
2022/07/03 01:39:10;;;;;;;;;;;13.60;99.90;;;;;;5007209;28;20080;-66
2022/07/03 01:41:37;;;;;;;;;;;13.50;99.90;;;;;;5005358;28;20004;-67
2022/07/03 01:44:03;;;;;;;;;;;13.30;99.90;;;;;;5005323;28;19913;-66
2022/07/03 01:46:30;;;;;;;;;;;13.30;99.90;;;;;;5007521;28;19920;-66
2022/07/03 01:48:56;;;;;;;;;;;13.50;99.90;;;;;;5004068;28;19976;-66
2022/07/03 01:51:23;;;;;;;;;;;13.60;99.90;;;;;;5008030;28;19918;-66
2022/07/03 01:53:49;;;;;;;;;;;13.60;99.90;;;;;;5007080;28;20350;-66
2022/07/03 01:56:16;;;;;;;;;;;13.70;99.90;;;;;;5000612;28;19979;-66
2022/07/03 01:58:41;;;;;;;;;;;13.70;99.90;;;;;;5006321;28;20395;-66
2022/07/03 02:01:19;;;;;;;;;;;13.90;99.90;;;;;;5008882;28;19922;-66
2022/07/03 02:03:50;;;;;;;;;;;14.00;99.90;;;;;;5004239;28;19913;-65
2022/07/03 02:06:31;;;;;;;;;;;14.00;99.90;;;;;;5006876;28;19960;-66
2022/07/03 02:08:59;;;;;;;;;;;14.10;99.90;;;;;;5002627;28;19917;-66
2022/07/03 02:11:27;;;;;;;;;;;14.00;99.90;;;;;;5006468;28;20009;-67
2022/07/03 02:14:11;;;;;;;;;;;13.90;99.90;;;;;;5005998;28;19925;-66
2022/07/03 02:16:46;;;;;;;;;;;13.70;99.90;;;;;;5008549;28;19913;-66
2022/07/03 02:19:14;;;;;;;;;;;13.80;99.90;;;;;;4997554;28;20678;-66
2022/07/03 02:21:47;;;;;;;;;;;13.90;99.90;;;;;;5004997;28;19914;-66
2022/07/03 02:24:16;;;;;;;;;;;14.00;99.90;;;;;;5004625;28;19949;-66
2022/07/03 02:26:42;;;;;;;;;;;14.10;99.90;;;;;;5005853;28;20252;-65
2022/07/03 02:29:15;;;;;;;;;;;14.20;99.90;;;;;;5008138;28;19925;-66
2022/07/03 02:31:42;;;;;;;;;;;14.20;99.90;;;;;;5007157;28;19920;-66
2022/07/03 02:34:11;;;;;;;;;;;14.10;99.90;;;;;;5007625;28;19917;-67
2022/07/03 02:36:37;;;;;;;;;;;14.20;99.90;;;;;;5009308;28;19913;-66
2022/07/03 02:39:04;;;;;;;;;;;14.30;99.90;;;;;;5014021;28;20334;-67
2022/07/03 02:41:38;;;;;;;;;;;14.30;99.90;;;;;;5008030;28;20314;-66
2022/07/03 02:44:22;;;;;;;;;;;14.40;99.90;;;;;;5007579;28;19913;-65
2022/07/03 02:47:00;;;;;;;;;;;14.40;99.90;;;;;;5006900;28;19929;-67
2022/07/03 02:49:48;;;;;;;;;;;14.40;99.90;;;;;;5005773;28;19917;-66
2022/07/03 02:52:13;;;;;;;;;;;14.40;99.90;;;;;;5007827;28;19920;-66
2022/07/03 02:54:44;;;;;;;;;;;14.40;99.90;;;;;;5006070;28;19914;-67
2022/07/03 02:57:10;;;;;;;;;;;14.40;99.90;;;;;;5002432;28;19913;-67
2022/07/03 02:59:38;;;;;;;;;;;14.40;99.90;;;;;;5007250;28;19968;-66
2022/07/03 03:02:04;;;;;;;;;;;14.40;99.90;;;;;;5007899;28;19927;-67
2022/07/03 03:04:31;;;;;;;;;;;14.30;99.90;;;;;;5005645;28;19917;-68
2022/07/03 03:07:02;;;;;;;;;;;14.20;99.90;;;;;;5005501;28;20256;-66
2022/07/03 03:09:32;;;;;;;;;;;14.20;99.90;;;;;;5008510;28;19921;-66
2022/07/03 03:12:00;;;;;;;;;;;14.20;99.90;;;;;;5006124;28;20353;-67
2022/07/03 03:14:30;;;;;;;;;;;14.00;99.90;;;;;;5004275;28;19917;-66
2022/07/03 03:16:56;;;;;;;;;;;13.90;99.90;;;;;;5005289;28;20086;-65
2022/07/03 03:19:22;;;;;;;;;;;13.90;99.90;;;;;;5009362;28;19929;-66
2022/07/03 03:21:58;;;;;;;;;;;14.00;99.90;;;;;;5003461;28;19952;-66
2022/07/03 03:24:25;;;;;;;;;;;13.90;99.90;;;;;;5005073;28;19913;-66
2022/07/03 03:26:50;;;;;;;;;;;13.90;99.90;;;;;;5015316;28;19937;-65
2022/07/03 03:29:16;;;;;;;;;;;13.80;99.90;;;;;;5012765;28;19925;-66
2022/07/03 03:31:42;;;;;;;;;;;13.80;99.90;;;;;;5006370;28;19913;-66
2022/07/03 03:34:09;;;;;;;;;;;13.90;99.90;;;;;;5011730;28;19919;-66
2022/07/03 03:36:35;;;;;;;;;;;13.90;99.90;;;;;;5008788;28;19925;-67
2022/07/03 03:39:00;;;;;;;;;;;14.10;99.90;;;;;;5008584;28;19913;-66
2022/07/03 03:41:26;;;;;;;;;;;14.10;99.90;;;;;;5011628;28;19967;-66
2022/07/03 03:43:52;;;;;;;;;;;14.00;99.90;;;;;;5009825;28;20009;-66
2022/07/03 03:46:17;;;;;;;;;;;14.00;99.90;;;;;;5014112;28;19918;-65
2022/07/03 03:48:43;;;;;;;;;;;14.10;99.90;;;;;;5006677;28;19972;-67
2022/07/03 03:51:09;;;;;;;;;;;14.10;99.90;;;;;;5014076;28;20398;-66
2022/07/03 03:53:35;;;;;;;;;;;14.20;99.90;;;;;;5015037;28;19919;-67
2022/07/03 03:56:02;;;;;;;;;;;14.30;99.90;;;;;;5007617;28;20008;-67
2022/07/03 03:58:28;;;;;;;;;;;14.30;99.90;;;;;;5007396;28;20248;-66
2022/07/03 04:00:58;;;;;;;;;;;14.30;99.90;;;;;;5012193;28;19925;-67
2022/07/03 04:03:24;;;;;;;;;;;14.40;99.90;;;;;;5010121;28;19968;-67
2022/07/03 04:05:49;;;;;;;;;;;14.20;99.90;;;;;;5012542;28;19979;-67
2022/07/03 04:08:15;;;;;;;;;;;14.20;99.90;;;;;;5009150;28;20371;-66
2022/07/03 04:10:40;;;;;;;;;;;14.30;99.90;;;;;;5009303;28;19925;-67
2022/07/03 04:13:06;;;;;;;;;;;14.50;99.90;;;;;;5011301;28;20410;-66
2022/07/03 04:15:31;;;;;;;;;;;14.60;99.90;;;;;;5010721;28;19917;-66
2022/07/03 04:17:57;;;;;;;;;;;14.60;99.90;;;;;;5009181;28;19913;-66
2022/07/03 04:20:22;;;;;;;;;;;14.60;99.90;;;;;;5015290;28;20371;-66
2022/07/03 04:22:50;;;;;;;;;;;14.50;99.90;;;;;;5008877;28;20379;-67
2022/07/03 04:25:16;;;;;;;;;;;14.60;99.90;;;;;;5009729;28;19967;-66
2022/07/03 04:27:42;;;;;;;;;;;14.50;99.90;;;;;;5009631;28;20018;-67
2022/07/03 04:30:10;;;;;;;;;;;14.40;99.90;;;;;;5009126;28;19925;-66
2022/07/03 04:32:36;;;;;;;;;;;14.50;99.90;;;;;;5002728;28;19920;-66
2022/07/03 04:35:01;;;;;;;;;;;14.50;99.90;;;;;;5010669;28;20363;-66
2022/07/03 04:37:27;;;;;;;;;;;14.60;99.90;;;;;;5008527;28;19913;-67
2022/07/03 04:39:52;;;;;;;;;;;14.60;99.90;;;;;;5012888;28;20391;-66
2022/07/03 04:42:18;;;;;;;;;;;14.70;99.90;;;;;;5008783;28;19914;-66
2022/07/03 04:44:43;;;;;;;;;;;14.80;99.90;;;;;;5005991;28;19993;-66
2022/07/03 04:47:09;;;;;;;;;;;14.90;99.90;;;;;;5005488;28;19964;-66
2022/07/03 04:49:35;;;;;;;;;;;14.90;99.90;;;;;;5004183;28;19918;-66
2022/07/03 04:52:00;;;;;;;;;;;14.80;99.90;;;;;;5005890;28;19929;-66
2022/07/03 04:54:26;;;;;;;;;;;14.80;99.90;;;;;;4989739;28;20302;-67
2022/07/03 04:56:51;;;;;;;;;;;14.90;99.90;;;;;;5009042;28;19918;-66
2022/07/03 04:59:17;;;;;;;;;;;14.90;99.90;;;;;;5009458;28;19913;-66
2022/07/03 05:01:42;;;;;;;;;;;14.90;99.90;;;;;;5009360;28;19913;-66
2022/07/03 05:04:08;;;;;;;;;;;14.90;99.90;;;;;;5004915;28;19959;-67
2022/07/03 05:06:33;;;;;;;;;;;14.90;99.90;;;;;;5010096;28;19913;-66
2022/07/03 05:08:59;;;;;;;;;;;14.90;99.90;;;;;;5004561;28;19940;-66
2022/07/03 05:11:24;;;;;;;;;;;14.90;99.90;;;;;;5004213;28;19917;-67
2022/07/03 05:13:50;;;;;;;;;;;14.80;99.90;;;;;;5010727;28;19913;-66
2022/07/03 05:16:16;;;;;;;;;;;14.70;99.90;;;;;;4989437;28;20032;-66
2022/07/03 05:18:41;;;;;;;;;;;14.70;99.90;;;;;;5004971;28;19927;-67
2022/07/03 05:21:07;;;;;;;;;;;14.80;99.90;;;;;;5006668;28;20017;-66
2022/07/03 05:23:32;;;;;;;;;;;14.90;99.90;;;;;;5003902;28;19920;-66
2022/07/03 05:25:59;;;;;;;;;;;15.00;99.90;;;;;;5007883;28;19917;-66
2022/07/03 05:28:25;;;;;;;;;;;15.10;99.90;;;;;;5004102;28;19918;-66
2022/07/03 05:30:50;;;;;;;;;;;15.10;99.90;;;;;;5006110;28;19917;-67
2022/07/03 05:33:16;;;;;;;;;;;15.10;99.90;;;;;;5006625;28;19913;-67
2022/07/03 05:35:41;;;;;;;;;;;15.10;99.90;;;;;;5005648;28;19913;-67
2022/07/03 05:38:07;;;;;;;;;;;15.00;99.90;;;;;;5006769;28;20378;-66
2022/07/03 05:40:32;;;;;;;;;;;15.20;99.90;;;;;;5009039;28;19913;-66
2022/07/03 05:42:58;;;;;;;;;;;15.30;99.90;;;;;;5008837;28;19922;-66
2022/07/03 05:45:23;;;;;;;;;;;15.30;99.90;;;;;;5004676;28;19917;-66
2022/07/03 05:47:49;;;;;;;;;;;15.40;99.90;;;;;;5002509;28;20400;-67
2022/07/03 05:50:15;;;;;;;;;;;15.40;99.90;;;;;;4991169;28;19925;-67
2022/07/03 05:52:40;;;;;;;;;;;15.40;99.90;;;;;;5009030;28;19952;-66
2022/07/03 05:55:06;;;;;;;;;;;15.40;99.90;;;;;;5007124;28;19914;-67
2022/07/03 05:57:31;;;;;;;;;;;15.50;99.90;;;;;;5005915;28;19914;-66
2022/07/03 05:59:58;;;;;;;;;;;15.60;99.90;;;;;;5004779;28;20299;-66
2022/07/03 06:02:23;;;;;;;;;;;15.40;99.90;;;;;;5007455;28;19921;-68
2022/07/03 06:04:49;;;;;;;;;;;15.40;99.90;;;;;;5003657;28;20353;-66
2022/07/03 06:07:16;;;;;;;;;;;15.40;99.90;;;;;;5007582;28;20654;-67
2022/07/03 06:09:43;;;;;;;;;;;15.40;99.90;;;;;;5007777;28;19917;-65
2022/07/03 06:12:09;;;;;;;;;;;15.40;99.90;;;;;;5005909;28;20294;-67
2022/07/03 06:14:34;;;;;;;;;;;15.40;99.90;;;;;;4989704;28;19924;-66
2022/07/03 06:17:00;;;;;;;;;;;15.40;99.90;;;;;;5005832;28;19914;-66
2022/07/03 06:19:25;;;;;;;;;;;15.40;99.90;;;;;;5010524;28;19950;-66
2022/07/03 06:21:51;;;;;;;;;;;15.40;99.90;;;;;;5008035;28;20008;-67
2022/07/03 06:24:17;;;;;;;;;;;15.40;99.90;;;;;;5005249;28;19913;-67
2022/07/03 06:26:42;;;;;;;;;;;15.40;99.90;;;;;;5002025;28;19917;-65
2022/07/03 06:29:08;;;;;;;;;;;15.50;99.90;;;;;;5001674;28;20390;-67
2022/07/03 06:31:33;;;;;;;;;;;15.50;99.90;;;;;;5002349;28;19940;-66
2022/07/03 06:33:59;;;;;;;;;;;15.50;99.90;;;;;;5004990;28;19914;-67
2022/07/03 06:36:25;;;;;;;;;;;15.60;99.90;;;;;;5006883;28;19921;-66
2022/07/03 06:38:50;;;;;;;;;;;15.50;99.90;;;;;;5003300;28;19918;-65
2022/07/03 06:41:16;;;;;;;;;;;15.50;99.90;;;;;;5001330;28;19953;-66
2022/07/03 06:43:41;;;;;;;;;;;15.60;99.90;;;;;;5005207;28;19914;-66
2022/07/03 06:46:07;;;;;;;;;;;15.70;99.90;;;;;;5002574;28;19925;-67
2022/07/03 06:48:32;;;;;;;;;;;15.80;99.90;;;;;;5005963;28;19926;-66
2022/07/03 06:50:58;;;;;;;;;;;16.00;99.90;;;;;;5008366;28;19918;-67
2022/07/03 06:53:23;;;;;;;;;;;16.10;99.90;;;;;;5007167;28;19921;-67
2022/07/03 06:55:49;;;;;;;;;;;16.20;99.90;;;;;;5010560;28;19917;-66
2022/07/03 06:58:14;;;;;;;;;;;16.40;99.90;;;;;;5008902;28;20292;-67
2022/07/03 07:00:40;;;;;;;;;;;16.60;99.90;;;;;;5009754;28;19918;-66
2022/07/03 07:03:06;;;;;;;;;;;16.60;99.90;;;;;;5008561;28;19921;-65
2022/07/03 07:05:32;;;;;;;;;;;16.60;99.90;;;;;;5009808;28;19921;-65
2022/07/03 07:07:57;;;;;;;;;;;16.50;99.90;;;;;;5007258;28;20288;-67
2022/07/03 07:10:23;;;;;;;;;;;16.60;99.90;;;;;;5008043;28;19928;-66
2022/07/03 07:12:49;;;;;;;;;;;16.70;99.90;;;;;;5010090;28;19921;-66
2022/07/03 07:15:14;;;;;;;;;;;16.90;99.90;;;;;;5009508;28;19933;-66
2022/07/03 07:17:40;;;;;;;;;;;16.90;99.90;;;;;;5012963;28;19913;-67
2022/07/03 07:20:06;;;;;;;;;;;17.10;99.90;;;;;;5009420;28;20021;-65
2022/07/03 07:22:31;;;;;;;;;;;17.30;99.90;;;;;;4995101;28;19917;-65
2022/07/03 07:24:57;;;;;;;;;;;17.50;99.90;;;;;;5007064;28;20609;-66
2022/07/03 07:27:22;;;;;;;;;;;17.70;99.90;;;;;;5012380;28;20037;-66
2022/07/03 07:29:48;;;;;;;;;;;17.70;99.90;;;;;;5008991;28;19918;-66
2022/07/03 07:32:14;;;;;;;;;;;17.90;99.90;;;;;;5012165;28;19913;-66
2022/07/03 07:34:39;;;;;;;;;;;18.00;99.90;;;;;;5014088;28;20596;-65
2022/07/03 07:37:05;;;;;;;;;;;18.20;99.90;;;;;;5008638;28;20228;-66
2022/07/03 07:39:30;;;;;;;;;;;18.30;99.90;;;;;;5010732;28;19917;-66
2022/07/03 07:41:56;;;;;;;;;;;18.30;99.90;;;;;;4989935;28;19920;-65
2022/07/03 07:44:21;;;;;;;;;;;18.30;99.90;;;;;;5010430;28;20080;-65
2022/07/03 07:46:47;;;;;;;;;;;18.50;99.90;;;;;;5007548;28;19949;-66
2022/07/03 07:49:12;;;;;;;;;;;18.60;99.90;;;;;;5013515;28;19921;-66
2022/07/03 07:51:38;;;;;;;;;;;18.70;99.90;;;;;;5005862;28;20433;-67
2022/07/03 07:54:04;;;;;;;;;;;18.60;99.90;;;;;;5010849;28;19914;-67
2022/07/03 07:56:29;;;;;;;;;;;18.40;99.90;;;;;;5008640;28;19960;-67
2022/07/03 07:58:55;;;;;;;;;;;18.10;99.90;;;;;;4997011;28;19925;-66
2022/07/03 08:06:52;;;;;;;;;;;17.50;99.90;;;;;;5012771;28;19921;-65
2022/07/03 08:09:17;;;;;;;;;;;17.60;99.90;;;;;;4995684;28;19952;-64
2022/07/03 08:11:43;;;;;;;;;;;17.60;99.90;;;;;;5005471;28;19945;-63
2022/07/03 08:14:10;;;;;;;;;;;17.60;99.90;;;;;;4992895;28;19933;-66
2022/07/03 08:16:35;;;;;;;;;;;17.70;99.90;;;;;;5006966;28;19920;-66
2022/07/03 08:19:01;;;;;;;;;;;17.90;99.90;;;;;;5007395;28;19921;-67
2022/07/03 08:21:27;;;;;;;;;;;18.00;99.90;;;;;;5008604;28;19921;-65
2022/07/03 08:23:53;;;;;;;;;;;18.00;99.90;;;;;;5002546;28;19914;-66
2022/07/03 08:26:18;;;;;;;;;;;18.00;99.90;;;;;;5006999;28;19995;-66
2022/07/03 08:28:44;;;;;;;;;;;18.00;99.90;;;;;;5001366;28;19988;-66
2022/07/03 08:31:09;;;;;;;;;;;17.90;99.90;;;;;;5007499;28;19917;-66
2022/07/03 08:33:35;;;;;;;;;;;18.00;99.90;;;;;;5008703;28;19952;-66
2022/07/03 08:36:01;;;;;;;;;;;18.10;99.90;;;;;;5005935;28;19953;-66
2022/07/03 08:38:29;;;;;;;;;;;18.20;99.90;;;;;;4988421;28;20356;-67
2022/07/03 08:40:57;;;;;;;;;;;18.10;99.90;;;;;;5010463;28;20376;-66
2022/07/03 08:43:22;;;;;;;;;;;18.00;99.90;;;;;;5006923;28;20267;-65
2022/07/03 08:45:48;;;;;;;;;;;17.80;99.90;;;;;;4989569;28;19964;-66
2022/07/03 08:48:14;;;;;;;;;;;17.80;99.90;;;;;;5009654;28;20355;-66
2022/07/03 08:50:43;;;;;;;;;;;18.00;99.90;;;;;;5009161;28;19933;-66
2022/07/03 08:53:10;;;;;;;;;;;18.20;99.90;;;;;;5009784;28;19962;-65
2022/07/03 08:55:35;;;;;;;;;;;18.40;99.90;;;;;;5010237;28;20059;-66
2022/07/03 08:58:01;;;;;;;;;;;18.60;99.90;;;;;;5007817;28;20021;-66
2022/07/03 09:00:27;;;;;;;;;;;18.70;99.90;;;;;;5002975;28;19918;-66
2022/07/03 09:02:54;;;;;;;;;;;18.80;99.90;;;;;;5007670;28;19967;-66
2022/07/03 09:05:20;;;;;;;;;;;18.80;99.90;;;;;;4989488;28;20056;-66
2022/07/03 09:07:46;;;;;;;;;;;18.60;99.90;;;;;;5007869;28;20008;-66
2022/07/03 09:10:13;;;;;;;;;;;18.40;99.90;;;;;;5007143;28;19921;-66
2022/07/03 09:12:38;;;;;;;;;;;18.50;99.90;;;;;;5004884;28;20351;-67
2022/07/03 09:15:05;;;;;;;;;;;18.40;99.90;;;;;;5005544;28;19920;-66
2022/07/03 09:17:31;;;;;;;;;;;18.50;99.90;;;;;;5007914;28;19917;-66
2022/07/03 09:20:03;;;;;;;;;;;18.80;99.90;;;;;;5006707;28;19929;-67
2022/07/03 09:22:33;;;;;;;;;;;18.80;99.90;;;;;;5006277;28;20441;-67
2022/07/03 09:25:13;;;;;;;;;;;18.70;99.90;;;;;;5006980;28;19914;-68
2022/07/03 09:27:48;;;;;;;;;;;18.70;99.90;;;;;;5008089;28;20016;-66
2022/07/03 09:30:14;;;;;;;;;;;18.80;99.90;;;;;;5007316;28;20260;-66
2022/07/03 09:32:44;;;;;;;;;;;19.00;99.90;;;;;;5005345;28;20051;-65
2022/07/03 09:35:20;;;;;;;;;;;19.30;99.90;;;;;;4973769;28;20356;-66
2022/07/03 09:37:58;;;;;;;;;;;19.40;99.90;;;;;;4991832;28;20390;-65
2022/07/03 09:40:24;;;;;;;;;;;19.70;99.90;;;;;;5004035;28;19922;-66
2022/07/03 09:43:03;;;;;;;;;;;19.70;99.90;;;;;;5005921;28;20355;-64
2022/07/03 09:45:48;;;;;;;;;;;19.40;99.90;;;;;;4989088;28;19939;-66
2022/07/03 09:48:20;;;;;;;;;;;19.10;99.90;;;;;;5006322;28;19918;-66
2022/07/03 09:50:45;;;;;;;;;;;18.90;99.90;;;;;;5004881;28;19925;-66
2022/07/03 09:53:11;;;;;;;;;;;18.70;99.90;;;;;;4991921;28;19921;-65
2022/07/03 09:55:37;;;;;;;;;;;18.40;99.90;;;;;;4984472;28;19967;-65
2022/07/03 09:58:03;;;;;;;;;;;18.20;99.90;;;;;;4999741;28;19917;-64
2022/07/03 10:00:30;;;;;;;;;;;18.00;99.90;;;;;;5005307;28;20252;-67
2022/07/03 10:03:12;;;;;;;;;;;18.00;99.90;;;;;;4987698;28;20303;-66
2022/07/03 10:05:37;;;;;;;;;;;18.00;99.90;;;;;;4986371;28;19923;-67
2022/07/03 10:08:03;;;;;;;;;;;17.90;99.90;;;;;;5002211;28;19922;-67
2022/07/03 10:10:30;;;;;;;;;;;18.00;99.90;;;;;;5004480;28;19921;-67
2022/07/03 10:12:56;;;;;;;;;;;17.90;99.90;;;;;;5004617;28;19980;-67
2022/07/03 10:15:22;;;;;;;;;;;18.00;99.90;;;;;;5000516;28;20287;-66
2022/07/03 10:17:56;;;;;;;;;;;17.90;99.90;;;;;;5005906;28;20216;-66
2022/07/03 10:20:29;;;;;;;;;;;17.90;99.90;;;;;;5001475;28;19937;-65
2022/07/03 10:22:55;;;;;;;;;;;18.00;99.90;;;;;;5003053;28;19946;-66
2022/07/03 10:25:20;;;;;;;;;;;18.20;99.90;;;;;;5000416;28;19959;-66
2022/07/03 10:27:46;;;;;;;;;;;18.40;99.90;;;;;;5003987;28;19972;-66
2022/07/03 10:30:14;;;;;;;;;;;18.50;99.90;;;;;;5005431;28;20392;-65
2022/07/03 10:32:41;;;;;;;;;;;18.80;99.90;;;;;;5003790;28;19914;-66
2022/07/03 10:35:08;;;;;;;;;;;19.00;99.90;;;;;;4989334;28;19923;-66
2022/07/03 10:37:41;;;;;;;;;;;19.10;99.90;;;;;;4998769;28;19972;-67
2022/07/03 10:46:00;;;;;;;;;;;19.50;99.90;;;;;;5004790;28;19920;-66
2022/07/03 10:48:46;;;;;;;;;;;19.60;99.90;;;;;;5004502;28;20024;-66
2022/07/03 10:51:12;;;;;;;;;;;19.70;99.90;;;;;;4983345;28;19921;-67
2022/07/03 10:53:37;;;;;;;;;;;20.00;99.90;;;;;;4987855;28;19967;-68
2022/07/03 10:56:04;;;;;;;;;;;20.00;99.90;;;;;;5003896;28;19914;-66
2022/07/03 10:58:29;;;;;;;;;;;20.10;99.90;;;;;;4991845;28;19913;-68
2022/07/03 11:00:57;;;;;;;;;;;20.20;99.90;;;;;;5002097;28;19921;-68
2022/07/03 11:03:41;;;;;;;;;;;20.30;99.90;;;;;;5003946;28;19939;-68
2022/07/03 11:06:06;;;;;;;;;;;20.40;99.90;;;;;;5002161;28;20000;-67
2022/07/03 11:08:52;;;;;;;;;;;20.40;99.90;;;;;;5007090;28;20466;-67
2022/07/03 11:14:19;;;;;;;;;;;20.10;99.90;;;;;;5000090;28;20003;-67
2022/07/03 11:16:45;;;;;;;;;;;19.80;99.90;;;;;;5001404;28;20272;-67
2022/07/03 11:19:11;;;;;;;;;;;19.40;99.90;;;;;;4999647;28;19913;-67
2022/07/03 11:21:40;;;;;;;;;;;19.00;99.90;;;;;;4981704;28;19920;-68
2022/07/03 11:24:14;;;;;;;;;;;18.60;99.90;;;;;;4976374;28;20402;-67
2022/07/03 11:26:39;;;;;;;;;;;18.20;99.90;;;;;;4981157;28;19926;-66
2022/07/03 11:29:24;;;;;;;;;;;17.90;99.90;;;;;;4977043;28;19934;-67
2022/07/03 11:31:52;;;;;;;;;;;17.70;99.90;;;;;;4981077;28;20674;-67
2022/07/03 11:34:21;;;;;;;;;;;17.70;99.90;;;;;;4966983;28;19921;-68
2022/07/03 11:36:46;;;;;;;;;;;17.70;99.90;;;;;;4971178;28;20008;-67
2022/07/03 11:39:13;;;;;;;;;;;17.90;99.90;;;;;;4981682;28;20017;-65
2022/07/03 11:41:38;;;;;;;;;;;18.30;99.90;;;;;;4986152;28;19914;-66
2022/07/03 11:44:08;;;;;;;;;;;18.70;99.90;;;;;;4986103;28;19920;-67
2022/07/03 11:46:34;;;;;;;;;;;19.00;99.90;;;;;;4987791;28;19925;-66
2022/07/03 11:49:12;;;;;;;;;;;19.30;99.90;;;;;;4984815;28;20319;-66
2022/07/03 11:51:39;;;;;;;;;;;19.50;99.90;;;;;;4982000;28;19917;-66
2022/07/03 11:54:05;;;;;;;;;;;19.60;99.90;;;;;;4985447;28;19964;-67
2022/07/03 11:56:31;;;;;;;;;;;19.50;99.90;;;;;;4979988;28;19949;-66
2022/07/03 11:58:57;;;;;;;;;;;19.40;99.90;;;;;;4983279;28;19921;-66
2022/07/03 12:01:26;;;;;;;;;;;19.20;99.90;;;;;;4985449;28;19929;-66
2022/07/03 12:04:14;;;;;;;;;;;19.00;99.90;;;;;;4967713;28;19921;-65
2022/07/03 12:06:39;;;;;;;;;;;19.20;99.90;;;;;;4968872;28;20363;-66
2022/07/03 12:09:12;;;;;;;;;;;19.20;99.90;;;;;;4989772;28;19976;-66
2022/07/03 12:11:37;;;;;;;;;;;19.20;99.90;;;;;;4965672;28;19918;-67
2022/07/03 12:14:03;;;;;;;;;;;19.20;99.90;;;;;;4971087;28;19996;-66
2022/07/03 12:16:32;;;;;;;;;;;19.30;99.90;;;;;;4986110;28;19964;-67
2022/07/03 12:19:02;;;;;;;;;;;19.50;99.90;;;;;;4989716;28;20315;-68
2022/07/03 12:21:34;;;;;;;;;;;19.70;99.90;;;;;;5009531;28;20268;-66
2022/07/03 12:24:00;;;;;;;;;;;19.80;99.90;;;;;;5007394;28;19992;-66
2022/07/03 12:26:27;;;;;;;;;;;19.80;99.90;;;;;;5003267;28;20344;-66
2022/07/03 12:28:53;;;;;;;;;;;19.70;99.90;;;;;;5007976;28;19922;-66
2022/07/03 12:31:19;;;;;;;;;;;19.70;99.90;;;;;;5004435;28;19940;-66
2022/07/03 12:33:46;;;;;;;;;;;19.50;99.90;;;;;;5004184;28;19928;-67
2022/07/03 12:36:12;;;;;;;;;;;19.70;99.90;;;;;;5007481;28;19925;-66
2022/07/03 12:38:39;;;;;;;;;;;20.00;99.90;;;;;;5008523;28;20283;-67
2022/07/03 12:41:09;;;;;;;;;;;19.90;99.90;;;;;;5004358;28;19989;-66
2022/07/03 12:43:38;;;;;;;;;;;20.20;99.90;;;;;;5004993;28;19914;-68
2022/07/03 12:46:24;;;;;;;;;;;20.40;99.90;;;;;;5009630;28;19924;-67
2022/07/03 12:48:51;;;;;;;;;;;20.60;99.90;;;;;;4993841;28;19968;-66
2022/07/03 12:51:35;;;;;;;;;;;20.50;99.90;;;;;;5004011;28;19952;-66
2022/07/03 12:54:03;;;;;;;;;;;20.30;99.90;;;;;;5001505;28;20352;-67
2022/07/03 12:56:29;;;;;;;;;;;20.40;99.90;;;;;;5004358;28;19960;-69
2022/07/03 13:01:39;;;;;;;;;;;20.20;99.90;;;;;;5002804;28;19921;-69
2022/07/03 13:04:07;;;;;;;;;;;20.50;99.90;;;;;;4997685;28;20233;-69
2022/07/03 13:06:33;;;;;;;;;;;20.60;99.10;;;;;;4994287;28;19922;-67
2022/07/03 13:09:00;;;;;;;;;;;20.60;96.70;;;;;;5002420;28;20312;-66
2022/07/03 13:11:27;;;;;;;;;;;20.60;96.40;;;;;;5007407;28;20024;-66
2022/07/03 13:13:55;;;;;;;;;;;20.50;96.60;;;;;;4995237;28;19924;-66
2022/07/03 13:16:35;;;;;;;;;;;20.40;97.20;;;;;;4997265;28;19961;-67
2022/07/03 13:19:01;;;;;;;;;;;20.30;96.50;;;;;;5002781;28;19917;-67
2022/07/03 13:21:26;;;;;;;;;;;20.60;94.80;;;;;;5003011;28;19927;-67
2022/07/03 13:23:52;;;;;;;;;;;20.80;92.40;;;;;;5002698;28;20393;-65
2022/07/03 13:26:18;;;;;;;;;;;20.90;92.00;;;;;;5008328;28;20509;-66
2022/07/03 13:28:43;;;;;;;;;;;20.80;92.00;;;;;;4990727;28;19967;-67
2022/07/03 13:31:09;;;;;;;;;;;20.80;92.20;;;;;;5006900;28;19914;-67
2022/07/03 13:33:34;;;;;;;;;;;20.90;91.80;;;;;;5005851;28;20356;-66
2022/07/03 13:36:00;;;;;;;;;;;20.90;91.50;;;;;;5012831;28;19987;-67
2022/07/03 13:38:25;;;;;;;;;;;21.00;91.10;;;;;;5004689;28;20325;-66
2022/07/03 13:40:51;;;;;;;;;;;20.90;92.00;;;;;;5007500;28;19920;-67
2022/07/03 13:43:17;;;;;;;;;;;20.60;91.30;;;;;;5002191;28;19914;-66
2022/07/03 13:45:43;;;;;;;;;;;20.70;91.50;;;;;;4997539;28;19921;-67
2022/07/03 13:48:08;;;;;;;;;;;20.90;91.60;;;;;;5000917;28;20259;-66
2022/07/03 13:50:35;;;;;;;;;;;21.20;91.60;;;;;;4985037;28;20023;-68
2022/07/03 13:53:01;;;;;;;;;;;21.20;91.60;;;;;;5005410;28;19982;-67
2022/07/03 13:55:26;;;;;;;;;;;21.20;91.70;;;;;;4998085;28;19914;-66
2022/07/03 13:57:53;;;;;;;;;;;21.40;91.30;;;;;;4999329;28;19921;-66
2022/07/03 14:00:18;;;;;;;;;;;21.20;91.80;;;;;;4983323;28;19914;-65
2022/07/03 14:02:44;;;;;;;;;;;20.70;93.10;;;;;;5005194;28;19917;-67
2022/07/03 14:05:09;;;;;;;;;;;20.30;94.50;;;;;;5004864;28;19920;-68
2022/07/03 14:07:35;;;;;;;;;;;20.00;95.70;;;;;;5002633;28;20383;-66
2022/07/03 14:10:01;;;;;;;;;;;19.80;97.20;;;;;;4999265;28;20287;-67
2022/07/03 14:12:26;;;;;;;;;;;19.80;97.50;;;;;;4996228;28;19913;-67
2022/07/03 14:14:52;;;;;;;;;;;19.70;97.70;;;;;;5002573;28;19926;-68
2022/07/03 14:17:17;;;;;;;;;;;19.80;97.20;;;;;;5000200;28;19913;-66
2022/07/03 14:19:43;;;;;;;;;;;19.80;96.20;;;;;;5005465;28;20400;-66
2022/07/03 14:22:09;;;;;;;;;;;19.80;95.70;;;;;;5014051;28;19917;-66
2022/07/03 14:24:34;;;;;;;;;;;19.70;95.90;;;;;;5006362;28;20279;-67
2022/07/03 14:32:31;;;;;;;;;;;19.80;96.20;;;;;;4997338;28;20024;-66
2022/07/03 14:34:58;;;;;;;;;;;20.00;95.80;;;;;;4997495;28;20302;-66
2022/07/03 14:37:23;;;;;;;;;;;20.40;94.90;;;;;;5002357;28;20217;-67
2022/07/03 14:39:49;;;;;;;;;;;20.40;94.50;;;;;;5006811;28;19922;-66
2022/07/03 14:42:15;;;;;;;;;;;20.50;95.00;;;;;;4991764;28;20004;-66
2022/07/03 14:44:41;;;;;;;;;;;21.70;93.00;;;;;;5003973;28;19917;-67